Time;durP1;ratioP1;P1;durP2;ratioP2;P2;SDS_P1;SDS_P2;PMS_P1;PMS_P2;Temp;Humidity;BMP_temperature;BMP_pressure;BME280_temperature;BME280_humidity;BME280_pressure;Samples;Min_cycle;Max_cycle;Signal;HPM_P1;HPM_P2
2022/07/08 00:02:16;;;;;;;12.33;4.80;;;;;;;17.47;62.07;102142.59;5100897;28;20237;-67
2022/07/08 00:04:41;;;;;;;13.20;4.70;;;;;;;17.21;62.42;102137.22;5100763;28;20206;-67
2022/07/08 00:07:06;;;;;;;11.13;4.77;;;;;;;17.22;62.37;102137.22;5100979;28;20169;-68
2022/07/08 00:09:32;;;;;;;15.03;5.30;;;;;;;17.26;61.80;102143.41;5100792;28;20207;-68
2022/07/08 00:11:57;;;;;;;14.97;4.60;;;;;;;17.69;60.74;102143.53;5100898;28;20160;-66
2022/07/08 00:14:23;;;;;;;12.13;4.67;;;;;;;17.65;60.75;102147.06;5100923;28;20164;-67
2022/07/08 00:16:49;;;;;;;7.73;4.20;;;;;;;17.42;61.33;102150.47;5100896;28;20172;-67
2022/07/08 00:19:15;;;;;;;14.10;5.63;;;;;;;17.42;61.19;102147.84;5100524;28;20248;-69
2022/07/08 00:21:43;;;;;;;11.67;4.30;;;;;;;17.38;61.28;102146.06;5100899;28;20417;-69
2022/07/08 00:24:12;;;;;;;11.87;4.67;;;;;;;17.45;61.20;102145.22;5100382;28;20679;-68
2022/07/08 00:26:38;;;;;;;13.57;4.40;;;;;;;17.57;61.44;102144.38;5100537;28;20396;-70
2022/07/08 00:29:05;;;;;;;15.17;4.70;;;;;;;17.05;62.85;102138.88;5100799;28;20430;-69
2022/07/08 00:31:30;;;;;;;9.13;4.10;;;;;;;17.17;62.23;102138.97;5100444;28;20415;-69
2022/07/08 00:33:55;;;;;;;12.70;4.20;;;;;;;17.57;61.07;102140.88;5099729;28;20468;-71
2022/07/08 00:36:21;;;;;;;9.70;5.40;;;;;;;16.98;62.95;102149.41;5100613;28;20461;-69
2022/07/08 00:38:46;;;;;;;15.43;4.90;;;;;;;17.11;61.95;102145.06;5099450;28;20575;-69
2022/07/08 00:41:12;;;;;;;10.67;4.70;;;;;;;17.10;62.16;102143.34;5100302;28;20160;-69
2022/07/08 00:43:39;;;;;;;12.37;4.27;;;;;;;16.92;62.35;102143.22;5100347;28;20188;-69
2022/07/08 00:46:05;;;;;;;12.70;5.17;;;;;;;17.13;62.40;102145.06;5100163;28;20205;-69
2022/07/08 00:48:30;;;;;;;12.90;5.00;;;;;;;16.93;62.43;102153.78;5100327;28;20397;-70
2022/07/08 00:51:01;;;;;;;11.40;4.23;;;;;;;16.60;63.01;102144.75;5100307;28;20164;-70
2022/07/08 00:53:28;;;;;;;15.80;4.57;;;;;;;16.89;62.55;102149.34;5099168;28;20258;-70
2022/07/08 00:55:54;;;;;;;12.40;4.10;;;;;;;16.76;62.52;102152.75;5099346;28;20429;-68
2022/07/08 00:58:20;;;;;;;9.80;4.03;;;;;;;16.82;62.16;102156.31;5099796;28;20369;-68
2022/07/08 01:00:47;;;;;;;11.63;4.30;;;;;;;17.12;61.61;102151.25;5099330;28;20520;-69
2022/07/08 01:03:12;;;;;;;8.60;4.37;;;;;;;16.89;61.97;102159.00;5099994;28;20218;-69
2022/07/08 01:05:38;;;;;;;15.00;4.40;;;;;;;17.04;61.56;102151.19;5100197;28;20488;-69
2022/07/08 01:08:04;;;;;;;10.73;3.93;;;;;;;16.72;62.24;102157.09;5099624;28;20214;-68
2022/07/08 01:10:29;;;;;;;9.87;4.50;;;;;;;17.13;61.11;102150.34;5099875;28;20169;-68
2022/07/08 01:12:55;;;;;;;11.27;4.00;;;;;;;17.13;61.04;102151.25;5099590;28;20165;-69
2022/07/08 01:15:22;;;;;;;8.53;4.03;;;;;;;16.88;61.54;102155.44;5099526;28;20196;-68
2022/07/08 01:17:48;;;;;;;13.27;4.90;;;;;;;17.47;60.16;102148.75;5098743;28;20430;-68
2022/07/08 01:20:14;;;;;;;10.40;4.43;;;;;;;17.21;60.97;102156.56;5100217;28;20381;-68
2022/07/08 01:22:39;;;;;;;5.60;3.80;;;;;;;16.69;62.30;102151.81;5099378;28;20520;-69
2022/07/08 01:25:05;;;;;;;8.23;4.33;;;;;;;16.93;62.26;102163.44;5099648;28;20164;-69
2022/07/08 01:27:32;;;;;;;8.93;3.77;;;;;;;16.83;62.18;102165.06;5098929;28;20175;-69
2022/07/08 01:29:58;;;;;;;7.80;3.70;;;;;;;16.68;62.08;102168.47;5098843;28;20491;-69
2022/07/08 01:32:29;;;;;;;13.33;4.87;;;;;;;16.93;61.53;102169.56;5098968;28;20488;-70
2022/07/08 01:34:55;;;;;;;9.27;3.70;;;;;;;16.89;61.62;102159.91;5099471;28;20168;-69
2022/07/08 01:37:20;;;;;;;9.77;5.03;;;;;;;16.77;62.22;102160.66;5099061;28;20853;-69
2022/07/08 01:39:47;;;;;;;11.60;6.60;;;;;;;17.19;61.00;102157.44;5098690;28;20429;-68
2022/07/08 01:42:12;;;;;;;13.53;4.97;;;;;;;16.96;61.88;102166.94;5099230;28;20216;-69
2022/07/08 01:44:37;;;;;;;7.20;4.07;;;;;;;17.01;62.45;102169.63;5098493;28;20920;-68
2022/07/08 01:47:03;;;;;;;6.73;4.03;;;;;;;16.53;63.26;102173.66;5099380;28;20463;-68
2022/07/08 01:49:28;;;;;;;8.50;4.97;;;;;;;16.81;62.86;102172.97;5098969;28;20197;-68
2022/07/08 01:51:54;;;;;;;7.37;3.70;;;;;;;16.60;63.07;102171.09;5098881;28;20207;-68
2022/07/08 01:54:19;;;;;;;9.13;5.77;;;;;;;16.98;62.03;102180.13;5099555;28;20411;-67
2022/07/08 01:56:45;;;;;;;9.13;4.37;;;;;;;16.64;63.13;102172.88;5099254;28;20168;-69
2022/07/08 01:59:10;;;;;;;14.50;4.40;;;;;;;16.82;62.68;102171.25;5098622;28;20175;-67
2022/07/08 02:01:36;;;;;;;12.20;4.37;;;;;;;16.65;63.28;102171.09;5098874;28;20616;-68
2022/07/08 02:04:01;;;;;;;8.37;4.20;;;;;;;17.19;62.15;102171.47;5098568;28;20168;-69
2022/07/08 02:06:28;;;;;;;8.33;4.03;;;;;;;16.78;62.24;102170.31;5098654;28;20222;-69
2022/07/08 02:08:53;;;;;;;11.90;4.90;;;;;;;17.22;61.31;102168.84;5098811;28;20168;-68
2022/07/08 02:14:03;;;;;;;7.80;3.90;;;;;;;16.64;61.98;102179.88;5098530;28;20217;-69
2022/07/08 02:16:28;;;;;;;8.50;4.37;;;;;;;16.78;61.62;102170.31;5098578;28;20509;-69
2022/07/08 02:18:53;;;;;;;12.57;4.30;;;;;;;16.96;61.14;102161.69;5098465;28;20179;-68
2022/07/08 02:21:19;;;;;;;9.50;4.10;;;;;;;17.05;60.82;102171.41;5099088;28;20160;-68
2022/07/08 02:23:44;;;;;;;10.70;3.87;;;;;;;17.04;60.42;102163.50;5098266;28;20572;-68
2022/07/08 02:26:09;;;;;;;11.10;4.27;;;;;;;17.06;59.98;102167.91;5098535;28;20450;-69
2022/07/08 02:28:35;;;;;;;12.80;4.40;;;;;;;17.23;60.08;102167.97;5098851;28;20169;-68
2022/07/08 02:31:00;;;;;;;12.83;5.10;;;;;;;17.28;59.52;102171.53;5098398;28;20213;-69
2022/07/08 02:33:25;;;;;;;10.97;4.77;;;;;;;17.23;59.10;102167.97;5098472;28;20168;-69
2022/07/08 02:35:51;;;;;;;9.53;4.17;;;;;;;17.20;58.84;102169.72;5098942;28;20179;-68
2022/07/08 02:38:16;;;;;;;7.80;4.70;;;;;;;17.43;58.55;102180.38;5098153;28;20214;-68
2022/07/08 02:40:41;;;;;;;8.50;4.20;;;;;;;17.36;57.98;102175.94;5098449;28;20179;-70
2022/07/08 02:43:10;;;;;;;12.73;4.80;;;;;;;17.28;58.44;102176.78;5097894;28;20234;-68
2022/07/08 02:45:35;;;;;;;8.63;4.23;;;;;;;17.05;58.92;102191.59;5097968;28;20548;-68
2022/07/08 02:48:01;;;;;;;7.83;4.00;;;;;;;17.11;58.67;102195.13;5098590;28;20415;-68
2022/07/08 02:50:26;;;;;;;12.10;4.37;;;;;;;17.20;57.99;102196.06;5098152;28;20176;-69
2022/07/08 02:52:52;;;;;;;12.60;4.70;;;;;;;17.03;59.13;102196.84;5097946;28;20275;-68
2022/07/08 02:55:17;;;;;;;8.67;3.73;;;;;;;17.20;58.17;102198.69;5098337;28;20535;-69
2022/07/08 02:57:43;;;;;;;13.70;4.20;;;;;;;17.34;57.48;102207.56;5098004;28;20178;-69
2022/07/08 03:00:09;;;;;;;8.87;3.87;;;;;;;17.11;58.48;102202.19;5097956;28;20165;-68
2022/07/08 03:02:34;;;;;;;9.20;4.10;;;;;;;17.33;57.92;102195.25;5098370;28;20263;-68
2022/07/08 03:05:00;;;;;;;10.10;4.40;;;;;;;17.04;58.69;102206.53;5097865;28;20458;-68
2022/07/08 03:07:26;;;;;;;8.77;4.20;;;;;;;17.03;58.95;102204.75;5097903;28;20263;-69
2022/07/08 03:09:51;;;;;;;8.90;4.10;;;;;;;17.29;58.01;102202.28;5097406;28;20743;-69
2022/07/08 03:12:16;;;;;;;9.20;4.30;;;;;;;16.87;59.47;102202.84;5097810;28;20496;-69
2022/07/08 03:14:42;;;;;;;7.20;3.63;;;;;;;16.99;59.15;102206.50;5097446;28;20165;-68
2022/07/08 03:17:08;;;;;;;10.40;4.17;;;;;;;16.78;59.69;102203.69;5097212;28;20187;-69
2022/07/08 03:19:33;;;;;;;10.50;4.40;;;;;;;17.13;59.00;102205.69;5097887;28;20172;-69
2022/07/08 03:21:59;;;;;;;9.50;4.17;;;;;;;16.99;59.44;102208.25;5097570;28;20779;-69
2022/07/08 03:24:24;;;;;;;7.07;3.90;;;;;;;17.29;58.69;102201.38;5098990;28;20180;-69
2022/07/08 03:26:49;;;;;;;6.50;3.90;;;;;;;16.94;60.03;102200.31;5101699;28;20172;-69
2022/07/08 03:29:15;;;;;;;7.93;3.57;;;;;;;16.88;59.63;102202.00;5101427;28;20417;-68
2022/07/08 03:31:40;;;;;;;9.50;3.93;;;;;;;17.44;58.54;102201.47;5101739;28;20168;-68
2022/07/08 03:34:05;;;;;;;8.53;4.30;;;;;;;17.15;59.24;102204.81;5101187;28;20172;-69
2022/07/08 03:36:31;;;;;;;9.13;3.90;;;;;;;17.07;59.26;102205.66;5101380;28;20545;-68
2022/07/08 03:38:56;;;;;;;11.50;4.20;;;;;;;16.87;59.96;102200.22;5102076;28;20416;-69
2022/07/08 03:41:23;;;;;;;9.10;4.27;;;;;;;17.40;58.88;102204.06;5101378;28;20216;-69
2022/07/08 03:43:49;;;;;;;13.93;4.17;;;;;;;17.23;59.04;102206.66;5101130;28;20212;-68
2022/07/08 03:46:14;;;;;;;12.43;3.50;;;;;;;17.06;59.85;102210.06;5101982;28;20402;-68
2022/07/08 03:48:40;;;;;;;7.53;3.77;;;;;;;16.90;60.57;102201.19;5101162;28;20452;-68
2022/07/08 03:51:05;;;;;;;6.20;3.73;;;;;;;17.12;59.40;102209.22;5100962;28;20251;-69
2022/07/08 03:53:31;;;;;;;8.20;3.80;;;;;;;17.47;59.15;102209.38;5101738;28;20164;-68
2022/07/08 03:55:56;;;;;;;10.07;4.17;;;;;;;17.20;59.77;102214.50;5101195;28;20499;-68
2022/07/08 03:58:22;;;;;;;8.50;3.50;;;;;;;17.26;60.00;102217.19;5101551;28;20172;-68
2022/07/08 04:00:47;;;;;;;9.93;4.53;;;;;;;17.77;58.30;102220.94;5100922;28;20437;-68
2022/07/08 04:03:12;;;;;;;7.20;3.67;;;;;;;17.57;58.55;102214.72;5100726;28;20211;-69
2022/07/08 04:05:38;;;;;;;6.33;3.80;;;;;;;17.61;58.87;102220.00;5100938;28;20533;-68
2022/07/08 04:08:04;;;;;;;10.57;4.10;;;;;;;18.33;56.93;102215.81;5101400;28;20564;-68
2022/07/08 04:10:30;;;;;;;8.07;3.90;;;;;;;18.17;57.33;102226.34;5100762;28;20176;-68
2022/07/08 04:12:55;;;;;;;12.10;4.23;;;;;;;17.78;58.48;102233.25;5100888;28;20392;-68
2022/07/08 04:15:21;;;;;;;9.07;3.80;;;;;;;18.16;56.99;102234.28;5100214;28;20317;-68
2022/07/08 04:17:46;;;;;;;8.27;3.43;;;;;;;18.76;56.14;102225.50;5100503;28;20172;-68
2022/07/08 04:20:12;;;;;;;6.20;3.80;;;;;;;18.28;57.53;102238.66;5100711;28;20192;-69
2022/07/08 04:22:37;;;;;;;6.73;3.47;;;;;;;18.33;56.64;102229.91;5100912;28;20259;-69
2022/07/08 04:25:03;;;;;;;9.03;3.63;;;;;;;18.31;57.35;102238.69;5100508;28;20206;-69
2022/07/08 04:27:28;;;;;;;5.87;3.50;;;;;;;18.15;57.46;102249.22;5100569;28;20161;-69
2022/07/08 04:29:54;;;;;;;5.43;3.13;;;;;;;18.23;58.06;102246.59;5101040;28;20540;-69
2022/07/08 04:32:19;;;;;;;12.17;3.90;;;;;;;19.15;55.51;102243.09;5100273;28;20191;-69
2022/07/08 04:34:45;;;;;;;9.73;3.60;;;;;;;19.28;55.04;102245.69;5099949;28;20179;-70
2022/07/08 04:37:11;;;;;;;6.80;3.53;;;;;;;19.45;54.77;102246.53;5101156;28;20160;-69
2022/07/08 04:39:36;;;;;;;7.90;3.97;;;;;;;19.68;54.24;102246.44;5100408;28;20432;-70
2022/07/08 04:42:02;;;;;;;6.80;3.40;;;;;;;19.51;54.73;102250.91;5099978;28;20220;-69
2022/07/08 04:44:27;;;;;;;7.13;3.70;;;;;;;19.17;55.38;102254.56;5100373;28;20196;-68
2022/07/08 04:46:52;;;;;;;8.80;3.80;;;;;;;19.83;53.15;102250.81;5100303;28;20176;-68
2022/07/08 04:49:18;;;;;;;10.53;3.67;;;;;;;20.77;51.30;102249.34;5100149;28;20183;-68
2022/07/08 04:51:43;;;;;;;9.23;4.10;;;;;;;22.49;47.42;102241.97;5100451;28;20200;-68
2022/07/08 04:54:08;;;;;;;11.30;3.90;;;;;;;23.32;44.81;102247.59;5099192;28;20184;-68
2022/07/08 04:56:34;;;;;;;9.10;3.97;;;;;;;22.60;47.14;102237.34;5100122;28;20172;-68
2022/07/08 04:58:59;;;;;;;5.60;3.23;;;;;;;23.21;44.81;102243.34;5100560;28;20521;-69
2022/07/08 05:01:24;;;;;;;6.57;3.50;;;;;;;22.33;46.42;102246.63;5099993;28;20237;-69
2022/07/08 05:03:50;;;;;;;11.07;3.70;;;;;;;21.76;48.07;102250.06;5099338;28;20207;-69
2022/07/08 05:06:15;;;;;;;14.80;3.80;;;;;;;21.46;49.70;102254.81;5099929;28;20252;-69
2022/07/08 05:08:41;;;;;;;6.80;3.70;;;;;;;21.87;49.34;102256.13;5098390;28;20266;-68
2022/07/08 05:11:06;;;;;;;8.17;3.77;;;;;;;20.75;50.86;102253.78;5095172;28;20181;-68
2022/07/08 05:13:31;;;;;;;10.10;3.50;;;;;;;21.07;50.41;102260.56;5096712;28;20175;-68
2022/07/08 05:15:58;;;;;;;9.10;4.10;;;;;;;22.35;47.44;102250.13;5098613;28;20594;-69
2022/07/08 05:18:23;;;;;;;10.23;3.23;;;;;;;22.81;46.29;102253.81;5098539;28;20180;-70
2022/07/08 05:20:49;;;;;;;8.47;3.37;;;;;;;23.42;45.19;102243.88;5100080;28;20771;-69
2022/07/08 05:23:14;;;;;;;7.90;3.07;;;;;;;22.85;45.47;102245.78;5099071;28;20282;-71
2022/07/08 05:25:39;;;;;;;6.33;3.63;;;;;;;21.23;48.60;102252.44;5099298;28;20579;-69
2022/07/08 05:28:05;;;;;;;9.17;3.87;;;;;;;20.00;52.29;102250.75;5099686;28;20251;-68
2022/07/08 05:30:30;;;;;;;7.37;3.47;;;;;;;20.90;50.21;102247.44;5098577;28;20231;-68
2022/07/08 05:32:56;;;;;;;10.30;3.50;;;;;;;19.60;53.08;102261.47;5099049;28;20293;-68
2022/07/08 05:35:21;;;;;;;7.33;3.50;;;;;;;19.39;54.07;102249.22;5099753;28;20184;-67
2022/07/08 05:37:47;;;;;;;6.77;4.97;;;;;;;21.02;50.99;102244.69;5099285;28;20230;-67
2022/07/08 05:40:12;;;;;;;12.03;3.57;;;;;;;22.27;46.74;102236.06;5099179;28;20183;-67
2022/07/08 05:42:38;;;;;;;8.30;3.50;;;;;;;20.81;49.30;102243.13;5099190;28;20306;-67
2022/07/08 05:45:05;;;;;;;6.60;3.23;;;;;;;20.02;51.50;102254.28;5098206;28;20211;-67
2022/07/08 05:47:30;;;;;;;6.80;3.50;;;;;;;20.95;49.19;102253.59;5098573;28;20407;-68
2022/07/08 05:49:56;;;;;;;7.07;3.53;;;;;;;22.66;46.22;102244.34;5098576;28;20723;-68
2022/07/08 05:52:21;;;;;;;10.67;3.73;;;;;;;23.90;43.08;102247.31;5098990;28;20168;-69
2022/07/08 05:54:47;;;;;;;9.33;3.10;;;;;;;24.66;41.14;102238.44;5099227;28;20222;-68
2022/07/08 05:57:13;;;;;;;6.77;3.10;;;;;;;23.99;41.36;102249.75;5098757;28;20233;-68
2022/07/08 05:59:38;;;;;;;6.90;3.20;;;;;;;24.63;41.01;102246.50;5098869;28;20176;-67
2022/07/08 06:02:04;;;;;;;6.63;3.40;;;;;;;25.53;39.20;102248.53;5099328;28;20786;-67
2022/07/08 06:04:29;;;;;;;5.83;3.10;;;;;;;26.59;37.18;102239.88;5098481;28;20225;-68
2022/07/08 06:06:55;;;;;;;5.97;3.27;;;;;;;26.68;36.38;102255.63;5098574;28;20255;-68
2022/07/08 06:09:20;;;;;;;8.80;3.73;;;;;;;25.57;38.83;102262.66;5098805;28;20217;-69
2022/07/08 06:11:46;;;;;;;12.13;3.70;;;;;;;27.56;35.14;102261.47;5098664;28;20448;-68
2022/07/08 06:14:11;;;;;;;9.17;3.80;;;;;;;25.89;37.43;102269.69;5097577;28;20251;-67
2022/07/08 06:16:36;;;;;;;6.20;3.33;;;;;;;26.54;36.51;102265.00;5098940;28;20176;-69
2022/07/08 06:19:02;;;;;;;18.83;4.70;;;;;;;25.79;37.21;102273.59;5098111;28;20216;-72
2022/07/08 06:21:27;;;;;;;8.50;3.30;;;;;;;27.63;34.81;102271.94;5098032;28;20172;-70
2022/07/08 06:23:53;;;;;;;6.23;3.40;;;;;;;27.95;33.74;102272.50;5098563;28;20196;-69
2022/07/08 06:26:18;;;;;;;33.63;7.90;;;;;;;26.74;35.19;102266.16;5098386;28;20172;-69
2022/07/08 06:28:44;;;;;;;4.97;3.30;;;;;;;26.16;36.22;102275.16;5098056;28;20247;-69
2022/07/08 06:31:09;;;;;;;6.07;3.20;;;;;;;26.72;34.94;102268.91;5098516;28;20175;-67
2022/07/08 06:33:34;;;;;;;11.37;5.10;;;;;;;28.19;33.48;102265.31;5097983;28;20179;-68
2022/07/08 06:36:00;;;;;;;8.40;3.40;;;;;;;27.36;33.96;102263.97;5098188;28;20551;-69
2022/07/08 06:38:25;;;;;;;5.63;3.47;;;;;;;28.34;33.12;102274.53;5098425;28;20243;-70
2022/07/08 06:40:51;;;;;;;6.77;3.80;;;;;;;28.92;32.06;102267.69;5098043;28;20204;-70
2022/07/08 06:43:17;;;;;;;5.57;3.00;;;;;;;26.69;35.20;102266.28;5097614;28;20238;-70
2022/07/08 06:45:43;;;;;;;10.07;4.40;;;;;;;27.35;34.79;102276.50;5098258;28;20176;-72
2022/07/08 06:48:08;;;;;;;8.83;4.40;;;;;;;27.58;34.02;102273.91;5097961;28;20410;-72
2022/07/08 06:50:34;;;;;;;9.60;3.67;;;;;;;26.68;35.33;102272.56;5097997;28;20219;-70
2022/07/08 06:52:59;;;;;;;10.90;3.60;;;;;;;26.90;35.94;102277.22;5098402;28;20164;-69
2022/07/08 06:55:24;;;;;;;9.57;3.57;;;;;;;27.87;34.65;102272.78;5097350;28;20173;-71
2022/07/08 06:57:50;;;;;;;6.83;3.50;;;;;;;25.57;37.56;102280.47;5097558;28;20255;-70
2022/07/08 07:00:16;;;;;;;7.40;4.40;;;;;;;25.35;38.05;102289.09;5102540;28;20184;-69
2022/07/08 07:02:41;;;;;;;9.70;3.50;;;;;;;24.98;38.95;102292.75;5101199;28;20261;-69
2022/07/08 07:05:08;;;;;;;9.30;3.20;;;;;;;23.78;41.30;102296.38;5102025;28;20418;-69
2022/07/08 07:07:33;;;;;;;6.97;3.20;;;;;;;24.14;40.95;102297.38;5102613;28;20161;-70
2022/07/08 07:09:59;;;;;;;6.47;4.47;;;;;;;24.38;41.40;102292.38;5101605;28;20763;-69
2022/07/08 07:12:24;;;;;;;7.27;3.40;;;;;;;23.47;43.17;102303.19;5101701;28;20172;-69
2022/07/08 07:14:50;;;;;;;8.57;4.47;;;;;;;22.79;44.77;102299.06;5092280;28;20173;-69
2022/07/08 07:17:17;;;;;;;6.90;3.60;;;;;;;22.15;46.11;102301.78;5092589;28;20172;-71
2022/07/08 07:19:43;;;;;;;7.87;3.90;;;;;;;21.53;47.37;102307.84;5100518;28;20175;-70
2022/07/08 07:22:08;;;;;;;8.00;3.47;;;;;;;21.12;48.98;102317.09;5101788;28;20724;-69
2022/07/08 07:24:34;;;;;;;9.50;3.67;;;;;;;21.04;48.83;102318.94;5101347;28;20180;-70
2022/07/08 07:26:59;;;;;;;6.00;3.50;;;;;;;20.52;50.61;102326.34;5101459;28;20183;-69
2022/07/08 07:29:24;;;;;;;6.73;3.60;;;;;;;19.82;52.98;102323.19;5099131;28;20545;-69
2022/07/08 07:31:50;;;;;;;6.23;3.97;;;;;;;20.06;53.09;102326.59;5099614;28;20237;-69
2022/07/08 07:34:15;;;;;;;10.83;3.90;;;;;;;20.73;50.94;102327.13;5098551;28;20176;-68
2022/07/08 07:36:41;;;;;;;9.97;4.70;;;;;;;20.80;51.13;102331.47;5092697;28;20176;-70
2022/07/08 07:39:09;;;;;;;8.10;3.60;;;;;;;20.81;51.28;102333.25;5089211;28;20188;-69
2022/07/08 07:41:36;;;;;;;9.63;4.43;;;;;;;20.26;52.91;102337.09;5100634;28;20220;-70
2022/07/08 07:44:01;;;;;;;9.20;4.30;;;;;;;19.86;53.82;102339.91;5099977;28;20511;-70
2022/07/08 07:46:27;;;;;;;9.47;4.03;;;;;;;19.63;55.17;102345.25;5100659;28;20418;-68
2022/07/08 07:48:52;;;;;;;11.70;4.00;;;;;;;19.53;55.67;102353.19;5101317;28;20180;-70
2022/07/08 07:51:17;;;;;;;7.67;4.07;;;;;;;19.42;56.36;102354.13;5101849;28;20503;-70
2022/07/08 07:53:43;;;;;;;11.53;4.80;;;;;;;19.53;56.50;102358.50;5101067;28;20176;-70
2022/07/08 07:56:08;;;;;;;11.30;4.43;;;;;;;19.50;56.86;102361.16;5101146;28;20172;-69
2022/07/08 07:58:34;;;;;;;8.33;4.23;;;;;;;19.40;57.67;102367.31;5101382;28;20267;-69
2022/07/08 08:00:59;;;;;;;12.27;5.30;;;;;;;19.48;57.77;102365.56;5095415;28;20188;-69
2022/07/08 08:03:24;;;;;;;7.40;4.10;;;;;;;19.10;59.32;102363.81;5084926;28;20307;-69
2022/07/08 08:05:51;;;;;;;10.90;4.87;;;;;;;19.12;59.97;102369.09;5081898;28;20226;-69
2022/07/08 08:08:17;;;;;;;10.70;4.50;;;;;;;19.26;59.74;102363.84;5080701;28;20169;-69
2022/07/08 08:10:42;;;;;;;11.00;4.30;;;;;;;18.93;60.91;102371.75;5079701;28;20423;-69
2022/07/08 08:13:10;;;;;;;14.03;4.10;;;;;;;19.04;61.07;102374.41;5080660;28;20161;-71
2022/07/08 08:15:36;;;;;;;12.83;5.17;;;;;;;19.46;60.35;102377.03;5085314;28;20195;-71
2022/07/08 08:18:01;;;;;;;8.00;4.40;;;;;;;18.90;63.42;102381.44;5099312;28;20434;-69
2022/07/08 08:20:28;;;;;;;14.70;4.77;;;;;;;18.36;65.83;102371.59;5091627;28;20220;-71
2022/07/08 08:22:54;;;;;;;11.20;4.33;;;;;;;18.79;65.53;102384.03;5099292;28;20215;-70
2022/07/08 08:25:20;;;;;;;12.10;5.47;;;;;;;18.30;68.52;102393.56;5090307;28;20404;-70
2022/07/08 08:27:45;;;;;;;8.83;4.53;;;;;;;18.59;68.30;102389.25;5080605;28;20164;-70
2022/07/08 08:30:12;;;;;;;8.67;4.83;;;;;;;18.40;69.09;102391.88;5099196;28;20266;-70
2022/07/08 08:32:38;;;;;;;8.07;4.80;;;;;;;18.92;67.90;102400.81;5104006;28;20175;-70
2022/07/08 08:35:04;;;;;;;10.13;4.90;;;;;;;19.19;68.01;102395.53;5102397;28;20435;-70
2022/07/08 08:37:30;;;;;;;8.97;5.30;;;;;;;19.05;68.38;102388.50;5103178;28;20646;-70
2022/07/08 08:39:55;;;;;;;8.67;5.27;;;;;;;18.92;67.81;102390.25;5102729;28;20535;-70
2022/07/08 08:42:21;;;;;;;15.10;5.90;;;;;;;18.76;68.34;102398.09;5103875;28;20655;-71
2022/07/08 08:44:49;;;;;;;9.63;5.10;;;;;;;18.65;69.25;102399.84;5098993;28;20203;-70
2022/07/08 08:47:16;;;;;;;11.43;5.40;;;;;;;18.83;69.26;102399.91;5099606;28;20233;-71
2022/07/08 08:49:42;;;;;;;12.87;5.10;;;;;;;18.94;69.42;102405.25;5099715;28;20770;-70
2022/07/08 08:52:09;;;;;;;15.03;5.03;;;;;;;18.71;69.74;102412.19;5100147;28;20438;-70
2022/07/08 08:54:36;;;;;;;10.27;5.27;;;;;;;18.84;69.20;102412.22;5099622;28;20429;-69
2022/07/08 08:57:01;;;;;;;12.83;5.47;;;;;;;18.37;70.49;102415.59;5099353;28;20422;-71
2022/07/08 08:59:27;;;;;;;9.23;5.97;;;;;;;18.09;71.50;102401.38;5099363;28;20429;-70
2022/07/08 09:01:54;;;;;;;13.83;5.70;;;;;;;18.65;70.35;102399.84;5099064;28;20211;-69
2022/07/08 09:04:20;;;;;;;8.13;5.07;;;;;;;18.60;69.92;102393.66;5099714;28;20187;-69
2022/07/08 09:06:45;;;;;;;6.93;4.73;;;;;;;18.73;70.56;102387.53;5099619;28;20434;-69
2022/07/08 09:09:10;;;;;;;9.33;6.33;;;;;;;19.11;69.11;102392.03;5099651;28;20221;-68
2022/07/08 09:11:39;;;;;;;7.47;4.43;;;;;;;18.64;70.74;102392.81;5099178;28;20197;-70
2022/07/08 09:14:18;;;;;;;6.40;4.60;;;;;;;18.77;70.94;102391.09;5092077;28;20179;-69
2022/07/08 09:17:16;;;;;;;10.80;5.47;;;;;;;19.62;69.03;102384.06;5098957;28;20434;-68
2022/07/08 09:19:42;;;;;;;6.77;4.73;;;;;;;19.76;68.12;102375.22;5089176;28;20692;-69
2022/07/08 09:22:08;;;;;;;9.30;4.60;;;;;;;19.57;68.20;102380.53;5097538;28;20465;-70
2022/07/08 09:24:35;;;;;;;6.53;5.13;;;;;;;19.48;69.52;102391.13;5099128;28;20455;-70
2022/07/08 09:27:08;;;;;;;9.50;4.83;;;;;;;19.11;71.55;102397.31;5099309;28;20425;-70
2022/07/08 09:29:34;;;;;;;6.67;4.40;;;;;;;19.89;69.51;102386.66;5096960;28;20533;-69
2022/07/08 09:32:11;;;;;;;7.80;4.30;;;;;;;19.69;68.87;102385.81;5099689;28;20514;-69
2022/07/08 09:34:37;;;;;;;6.00;3.80;;;;;;;19.06;71.14;102399.06;5098921;28;20425;-69
2022/07/08 09:37:11;;;;;;;4.90;3.20;;;;;;;19.35;70.96;102390.28;5082051;28;20423;-72
2022/07/08 09:39:36;;;;;;;6.27;3.20;;;;;;;19.63;69.37;102390.22;5090778;28;20410;-72
2022/07/08 09:42:02;;;;;;;5.00;4.50;;;;;;;19.38;70.13;102387.63;5098765;28;20624;-70
2022/07/08 09:44:27;;;;;;;5.27;4.40;;;;;;;18.99;71.65;102381.44;5087599;28;20177;-70
2022/07/08 09:46:52;;;;;;;5.00;3.30;;;;;;;19.91;68.96;102374.31;5097607;28;20188;-70
2022/07/08 09:49:32;;;;;;;3.63;3.33;;;;;;;19.89;69.38;102376.06;5098285;28;20198;-70
2022/07/08 09:52:01;;;;;;;5.63;4.37;;;;;;;20.69;67.72;102368.66;5099062;28;20168;-71
2022/07/08 09:54:27;;;;;;;3.67;3.10;;;;;;;21.31;66.06;102365.53;5098747;28;20504;-73
2022/07/08 09:57:04;;;;;;;4.20;3.30;;;;;;;20.76;66.26;102363.34;5098855;28;20418;-72
2022/07/08 09:59:31;;;;;;;3.50;2.70;;;;;;;20.79;67.50;102379.22;5098388;28;20434;-72
2022/07/08 10:01:58;;;;;;;3.60;3.17;;;;;;;20.93;66.60;102376.44;5097669;28;20433;-72
2022/07/08 10:04:24;;;;;;;2.97;2.73;;;;;;;20.71;66.59;102373.94;5097935;28;20528;-71
2022/07/08 10:06:50;;;;;;;3.20;2.80;;;;;;;20.91;65.32;102375.59;5097761;28;20711;-71
2022/07/08 10:09:16;;;;;;;3.37;3.07;;;;;;;20.31;68.29;102379.44;5097094;28;20422;-71
2022/07/08 10:11:43;;;;;;;4.10;3.10;;;;;;;20.47;67.42;102378.50;5097459;28;20418;-70
2022/07/08 10:14:08;;;;;;;5.80;3.10;;;;;;;19.82;69.40;102378.75;5096943;28;20429;-70
2022/07/08 10:16:34;;;;;;;4.77;3.70;;;;;;;19.26;71.80;102377.06;5097669;28;20421;-71
2022/07/08 10:19:02;;;;;;;4.73;3.60;;;;;;;19.46;70.45;102377.03;5098377;28;20426;-70
2022/07/08 10:21:28;;;;;;;3.73;3.33;;;;;;;20.13;69.06;102370.72;5097582;28;20422;-71
2022/07/08 10:23:54;;;;;;;4.03;3.57;;;;;;;19.83;69.88;102383.16;5091394;28;20472;-71
2022/07/08 10:26:25;;;;;;;5.67;4.00;;;;;;;19.82;69.81;102376.13;5096409;28;20418;-70
2022/07/08 10:29:24;;;;;;;3.63;3.30;;;;;;;20.18;68.79;102376.84;5093649;28;20422;-70
2022/07/08 10:31:51;;;;;;;3.70;3.40;;;;;;;19.76;70.48;102385.81;5094212;28;20501;-70
2022/07/08 10:34:21;;;;;;;4.00;3.60;;;;;;;19.18;72.65;102383.19;5096894;28;20436;-70
2022/07/08 10:36:52;;;;;;;4.07;3.37;;;;;;;19.56;71.45;102380.53;5095336;28;20426;-70
2022/07/08 10:39:28;;;;;;;4.30;3.27;;;;;;;19.58;71.95;102381.41;5097830;28;20434;-69
2022/07/08 10:41:58;;;;;;;4.13;3.67;;;;;;;19.56;72.07;102373.47;5098091;28;20457;-72
2022/07/08 10:44:54;;;;;;;3.77;3.40;;;;;;;20.19;70.54;102367.16;5093969;28;20916;-74
2022/07/08 10:47:25;;;;;;;4.37;3.70;;;;;;;19.84;69.70;102363.75;5077052;28;20450;-73
2022/07/08 10:49:51;;;;;;;3.90;3.10;;;;;;;20.39;69.32;102364.41;5085882;28;20418;-73
2022/07/08 10:52:19;;;;;;;3.20;3.00;;;;;;;20.67;69.08;102365.13;5097155;28;20762;-70
2022/07/08 10:54:45;;;;;;;4.13;3.60;;;;;;;20.69;67.88;102366.00;5084405;28;20185;-69
2022/07/08 10:57:26;;;;;;;3.97;3.40;;;;;;;21.47;66.35;102371.56;5097832;28;20422;-68
2022/07/08 11:00:13;;;;;;;4.20;3.20;;;;;;;21.50;64.32;102368.88;5086751;28;20200;-68
2022/07/08 11:02:43;;;;;;;5.73;3.77;;;;;;;20.76;66.06;102366.84;5097309;28;20767;-70
2022/07/08 11:05:34;;;;;;;5.33;3.90;;;;;;;20.79;65.93;102369.47;5095479;28;20442;-70
2022/07/08 11:08:18;;;;;;;5.87;3.77;;;;;;;20.28;68.30;102376.81;5080614;28;20455;-69
2022/07/08 11:10:44;;;;;;;3.83;3.40;;;;;;;21.42;65.19;102368.09;5096513;28;20417;-69
2022/07/08 11:13:10;;;;;;;4.53;3.70;;;;;;;21.33;64.56;102357.56;5088374;28;20509;-69
2022/07/08 11:15:36;;;;;;;11.53;9.13;;;;;;;22.02;63.61;102362.13;5097136;28;20567;-69
2022/07/08 11:18:02;;;;;;;7.53;3.30;;;;;;;22.57;60.73;102356.13;5097272;28;20596;-69
2022/07/08 11:20:30;;;;;;;4.87;3.53;;;;;;;22.49;59.95;102354.47;5095035;28;20429;-69
2022/07/08 11:22:55;;;;;;;4.60;3.20;;;;;;;21.76;61.33;102351.84;5095716;28;20295;-70